createdAt,value
2023-04-15T00:05:54.666Z,68.75
2023-04-15T00:15:58.293Z,68.59
2023-04-15T00:26:01.688Z,68.79
2023-04-15T00:36:06.588Z,68.35
2023-04-15T00:46:11.563Z,68.93
2023-04-15T00:56:14.799Z,68.88
2023-04-15T01:06:18.736Z,68.90
2023-04-15T01:16:22.175Z,69.00
2023-04-15T01:26:26.051Z,69.61
2023-04-15T01:36:30.001Z,69.65
2023-04-15T01:46:33.358Z,70.07
2023-04-15T01:56:36.841Z,70.60
2023-04-15T02:06:40.395Z,71.29
2023-04-15T02:16:43.566Z,71.57
2023-04-15T02:26:46.864Z,72.39
2023-04-15T02:36:55.147Z,72.62
2023-04-15T02:46:59.253Z,72.89
2023-04-15T02:57:02.589Z,73.31
2023-04-15T03:07:06.470Z,73.78
2023-04-15T03:17:09.871Z,74.27
2023-04-15T03:27:15.186Z,75.20
2023-04-15T03:37:18.904Z,75.34
2023-04-15T03:47:22.054Z,75.71
2023-04-15T03:57:25.224Z,75.15
2023-04-15T04:07:28.305Z,75.55
2023-04-15T04:17:31.390Z,76.03
2023-04-15T04:27:35.279Z,76.35
2023-04-15T04:37:38.551Z,76.77
2023-04-15T04:47:41.644Z,76.88
2023-04-15T04:57:44.828Z,77.16
2023-04-15T05:07:49.348Z,77.21
2023-04-15T05:17:52.487Z,77.60
2023-04-15T05:27:55.623Z,77.29
2023-04-15T05:37:58.637Z,77.15
2023-04-15T05:48:01.823Z,77.11
2023-04-15T05:58:05.058Z,76.82
2023-04-15T06:08:08.510Z,76.26
2023-04-15T06:18:11.976Z,74.09
2023-04-15T06:28:15.120Z,71.59
2023-04-15T06:38:38.384Z,69.54
2023-04-15T06:48:44.616Z,67.90
2023-04-15T06:58:54.962Z,65.74
2023-04-15T07:08:58.551Z,63.17
2023-04-15T07:19:02.770Z,61.36
2023-04-15T07:29:09.750Z,51.24
2023-04-15T07:40:19.834Z,48.45
2023-04-15T07:50:24.893Z,45.09
2023-04-15T08:00:40.604Z,44.19
2023-04-15T08:10:57.694Z,44.04
2023-04-15T08:21:23.276Z,44.82
2023-04-15T08:31:42.767Z,45.07
2023-04-15T08:41:48.085Z,43.87
2023-04-15T08:51:51.829Z,43.91
2023-04-15T09:01:56.833Z,44.45
2023-04-15T09:12:01.729Z,44.35
2023-04-15T09:22:22.764Z,44.45
2023-04-15T09:32:26.102Z,44.35
2023-04-15T09:42:31.042Z,45.21
2023-04-15T09:52:48.654Z,44.70
2023-04-15T10:02:53.068Z,44.47
2023-04-15T10:12:56.612Z,44.78
2023-04-15T10:23:00.136Z,44.43
2023-04-15T10:33:04.457Z,43.66
2023-04-15T10:43:07.590Z,43.60
2023-04-15T10:53:11.254Z,43.86
2023-04-15T11:03:14.933Z,44.65
2023-04-15T11:13:22.778Z,45.23
2023-04-15T11:23:39.405Z,47.09
2023-04-15T11:34:00.231Z,47.21
2023-04-15T11:44:03.435Z,47.31
2023-04-15T11:54:06.910Z,51.10
2023-04-15T12:04:15.544Z,53.33
2023-04-15T12:14:30.888Z,53.66
2023-04-15T12:24:36.157Z,52.18
2023-04-15T12:34:41.585Z,50.53
2023-04-15T12:44:45.179Z,50.77
2023-04-15T12:54:48.450Z,50.67
2023-04-15T13:04:51.496Z,48.99
2023-04-15T13:14:54.876Z,48.71
2023-04-15T13:24:57.957Z,48.52
2023-04-15T13:35:01.378Z,48.82
2023-04-15T13:45:05.190Z,48.62
2023-04-15T13:55:20.354Z,47.99
2023-04-15T14:05:24.494Z,47.31
2023-04-15T14:15:27.993Z,49.88
2023-04-15T14:25:34.056Z,51.49
2023-04-15T14:35:38.069Z,53.38
2023-04-15T14:45:43.703Z,54.78
2023-04-15T14:55:48.543Z,52.60
2023-04-15T15:05:52.042Z,49.50
2023-04-15T15:15:55.857Z,50.67
2023-04-15T15:25:59.233Z,53.93
2023-04-15T15:36:04.091Z,54.67
2023-04-15T15:46:07.200Z,55.12
2023-04-15T15:56:10.556Z,55.61
2023-04-15T16:06:13.596Z,56.23
2023-04-15T16:16:16.834Z,57.49
2023-04-15T16:26:20.058Z,58.26
2023-04-15T16:36:44.623Z,59.95
2023-04-15T16:46:55.401Z,61.41
2023-04-15T16:56:58.812Z,62.69
2023-04-15T17:17:33.266Z,64.71
2023-04-15T17:27:39.012Z,65.74
2023-04-15T17:37:42.413Z,66.68
2023-04-15T17:47:46.356Z,67.31
2023-04-15T17:57:50.102Z,68.24
2023-04-15T18:07:54.530Z,69.38
2023-04-15T18:18:01.191Z,70.54
2023-04-15T18:28:05.575Z,71.13
2023-04-15T18:39:00.758Z,71.93
2023-04-15T18:49:06.681Z,72.37
2023-04-15T18:59:29.673Z,72.92
2023-04-15T19:09:34.205Z,73.85
2023-04-15T19:19:39.729Z,74.15
2023-04-15T19:29:43.413Z,74.17
2023-04-15T19:41:32.594Z,74.71
2023-04-15T19:50:55.395Z,76.02
2023-04-15T20:00:59.404Z,76.62
2023-04-15T20:11:05.842Z,76.72
2023-04-15T20:31:41.346Z,76.99
2023-04-15T20:41:50.164Z,76.87
2023-04-15T20:51:59.145Z,76.95
2023-04-15T21:02:07.063Z,76.17
2023-04-15T21:12:11.283Z,76.62
2023-04-15T21:22:14.338Z,76.60
2023-04-15T21:32:17.595Z,76.42
2023-04-15T21:42:20.746Z,76.27
2023-04-15T21:52:23.953Z,76.55
2023-04-15T22:02:27.722Z,76.44
2023-04-15T22:12:31.488Z,76.89
2023-04-15T22:22:43.994Z,76.46
2023-04-15T22:32:47.963Z,76.81
2023-04-15T22:42:51.047Z,76.85
2023-04-15T22:52:54.062Z,76.69
2023-04-15T23:02:57.324Z,77.01
2023-04-15T23:13:00.578Z,76.88
2023-04-15T23:23:03.608Z,77.39
2023-04-15T23:33:06.836Z,77.41
2023-04-15T23:43:09.922Z,76.95
2023-04-15T23:53:12.940Z,76.97
